Terminal Aerodrome Forecast
Issued by NWS

Home | Current Version | Previous Version | Text Only | Print | Product List | Glossary On
Versions: 1 2 3 4 5 6 7 8 9 10 11 12 13 14 15 16 17 18 19 20 21 22 23 24
000
FTUS41 KPBZ 220500
TAFFKL
TAF
KFKL 220540Z 2206/2306 29010G16KT P6SM OVC010
     FM220700 29010G16KT P6SM VCSH OVC008
     FM221200 31008KT P6SM BKN008 OVC015
     FM221500 31008KT P6SM BKN025
     FM221800 29008KT P6SM BKN035
     FM230300 VRB04KT P6SM SKC
      AMD LTD TO CLD VIS AND WIND=

USA.gov is the U.S. government's official web portal to all federal, state and local government web resources and services.